sensor_id;sensor_type;location;lat;lon;timestamp;temperature;humidity
5846;DHT22;2949;50.778;7.094;2024-03-06T00:00:27;6.40;99.90
5846;DHT22;2949;50.778;7.094;2024-03-06T00:02:52;6.40;99.90
5846;DHT22;2949;50.778;7.094;2024-03-06T00:05:18;6.40;99.90
5846;DHT22;2949;50.778;7.094;2024-03-06T00:07:44;6.30;99.90
5846;DHT22;2949;50.778;7.094;2024-03-06T00:10:09;6.30;99.90
5846;DHT22;2949;50.778;7.094;2024-03-06T00:12:35;6.20;99.90
5846;DHT22;2949;50.778;7.094;2024-03-06T00:15:00;6.20;99.90
5846;DHT22;2949;50.778;7.094;2024-03-06T00:17:27;6.20;99.90
5846;DHT22;2949;50.778;7.094;2024-03-06T00:19:53;6.20;99.90
5846;DHT22;2949;50.778;7.094;2024-03-06T00:22:18;6.20;99.90
5846;DHT22;2949;50.778;7.094;2024-03-06T00:24:44;6.20;99.90
5846;DHT22;2949;50.778;7.094;2024-03-06T00:27:10;6.20;99.90
5846;DHT22;2949;50.778;7.094;2024-03-06T00:29:35;6.20;99.90
5846;DHT22;2949;50.778;7.094;2024-03-06T00:32:03;6.20;99.90
5846;DHT22;2949;50.778;7.094;2024-03-06T00:34:29;6.10;99.90
5846;DHT22;2949;50.778;7.094;2024-03-06T00:36:54;6.10;99.90
5846;DHT22;2949;50.778;7.094;2024-03-06T00:39:20;6.20;99.90
5846;DHT22;2949;50.778;7.094;2024-03-06T00:41:46;6.10;99.90
5846;DHT22;2949;50.778;7.094;2024-03-06T00:44:11;6.20;99.90
5846;DHT22;2949;50.778;7.094;2024-03-06T00:46:37;6.20;99.90
5846;DHT22;2949;50.778;7.094;2024-03-06T00:49:03;6.20;99.90
5846;DHT22;2949;50.778;7.094;2024-03-06T00:51:29;6.20;99.90
5846;DHT22;2949;50.778;7.094;2024-03-06T00:53:54;6.10;99.90
5846;DHT22;2949;50.778;7.094;2024-03-06T00:56:20;6.10;99.90
5846;DHT22;2949;50.778;7.094;2024-03-06T00:58:45;6.10;99.90
5846;DHT22;2949;50.778;7.094;2024-03-06T01:01:12;6.10;99.90
5846;DHT22;2949;50.778;7.094;2024-03-06T01:03:38;6.10;99.90
5846;DHT22;2949;50.778;7.094;2024-03-06T01:06:04;6.10;99.90
5846;DHT22;2949;50.778;7.094;2024-03-06T01:08:29;6.10;99.90
5846;DHT22;2949;50.778;7.094;2024-03-06T01:10:57;6.10;99.90
5846;DHT22;2949;50.778;7.094;2024-03-06T01:13:22;6.10;99.90
5846;DHT22;2949;50.778;7.094;2024-03-06T01:15:48;6.00;99.90
5846;DHT22;2949;50.778;7.094;2024-03-06T01:18:13;6.00;99.90
5846;DHT22;2949;50.778;7.094;2024-03-06T01:20:39;6.00;99.90
5846;DHT22;2949;50.778;7.094;2024-03-06T01:23:05;6.00;99.90
5846;DHT22;2949;50.778;7.094;2024-03-06T01:25:31;6.00;99.90
5846;DHT22;2949;50.778;7.094;2024-03-06T01:27:57;5.90;99.90
5846;DHT22;2949;50.778;7.094;2024-03-06T01:30:22;5.80;99.90
5846;DHT22;2949;50.778;7.094;2024-03-06T01:32:48;5.70;99.90
5846;DHT22;2949;50.778;7.094;2024-03-06T01:35:14;5.60;99.90
5846;DHT22;2949;50.778;7.094;2024-03-06T01:37:39;5.50;99.90
5846;DHT22;2949;50.778;7.094;2024-03-06T01:40:05;5.40;99.90
5846;DHT22;2949;50.778;7.094;2024-03-06T01:42:32;5.30;99.90
5846;DHT22;2949;50.778;7.094;2024-03-06T01:44:57;5.20;99.90
5846;DHT22;2949;50.778;7.094;2024-03-06T01:47:23;5.20;99.90
5846;DHT22;2949;50.778;7.094;2024-03-06T01:49:49;5.20;99.90
5846;DHT22;2949;50.778;7.094;2024-03-06T01:52:15;5.30;99.90
5846;DHT22;2949;50.778;7.094;2024-03-06T01:54:42;5.30;99.90
5846;DHT22;2949;50.778;7.094;2024-03-06T01:57:08;5.30;99.90
5846;DHT22;2949;50.778;7.094;2024-03-06T01:59:35;5.40;99.90
5846;DHT22;2949;50.778;7.094;2024-03-06T02:02:00;5.40;99.90
5846;DHT22;2949;50.778;7.094;2024-03-06T02:04:29;5.50;99.90
5846;DHT22;2949;50.778;7.094;2024-03-06T02:06:56;5.50;99.90
5846;DHT22;2949;50.778;7.094;2024-03-06T02:09:23;5.60;99.90
5846;DHT22;2949;50.778;7.094;2024-03-06T02:11:48;5.60;99.90
5846;DHT22;2949;50.778;7.094;2024-03-06T02:14:15;5.60;99.90
5846;DHT22;2949;50.778;7.094;2024-03-06T02:16:41;5.60;99.90
5846;DHT22;2949;50.778;7.094;2024-03-06T02:19:08;5.50;99.90
5846;DHT22;2949;50.778;7.094;2024-03-06T02:21:33;5.40;99.90
5846;DHT22;2949;50.778;7.094;2024-03-06T02:23:59;5.40;99.90
5846;DHT22;2949;50.778;7.094;2024-03-06T02:26:25;5.30;99.90
5846;DHT22;2949;50.778;7.094;2024-03-06T02:29:28;5.30;99.90
5846;DHT22;2949;50.778;7.094;2024-03-06T02:32:13;5.30;99.90
5846;DHT22;2949;50.778;7.094;2024-03-06T02:34:39;5.20;99.90
5846;DHT22;2949;50.778;7.094;2024-03-06T02:37:06;5.20;99.90
5846;DHT22;2949;50.778;7.094;2024-03-06T02:39:31;5.10;99.90
5846;DHT22;2949;50.778;7.094;2024-03-06T02:41:57;5.10;99.90
5846;DHT22;2949;50.778;7.094;2024-03-06T02:44:23;5.00;99.90
5846;DHT22;2949;50.778;7.094;2024-03-06T02:46:49;5.00;99.90
5846;DHT22;2949;50.778;7.094;2024-03-06T02:49:15;5.00;99.90
5846;DHT22;2949;50.778;7.094;2024-03-06T02:51:41;5.00;99.90
5846;DHT22;2949;50.778;7.094;2024-03-06T02:54:06;5.00;99.90
5846;DHT22;2949;50.778;7.094;2024-03-06T02:56:32;5.00;99.90
5846;DHT22;2949;50.778;7.094;2024-03-06T02:58:57;5.00;99.90
5846;DHT22;2949;50.778;7.094;2024-03-06T03:01:23;5.00;99.90
5846;DHT22;2949;50.778;7.094;2024-03-06T03:03:49;5.00;99.90
5846;DHT22;2949;50.778;7.094;2024-03-06T03:06:14;5.00;99.90
5846;DHT22;2949;50.778;7.094;2024-03-06T03:08:40;4.90;99.90
5846;DHT22;2949;50.778;7.094;2024-03-06T03:11:05;4.90;99.90
5846;DHT22;2949;50.778;7.094;2024-03-06T03:13:31;4.90;99.90
5846;DHT22;2949;50.778;7.094;2024-03-06T03:15:57;4.80;99.90
5846;DHT22;2949;50.778;7.094;2024-03-06T03:18:22;4.80;99.90
5846;DHT22;2949;50.778;7.094;2024-03-06T03:20:48;4.70;99.90
5846;DHT22;2949;50.778;7.094;2024-03-06T03:23:13;4.60;99.90
5846;DHT22;2949;50.778;7.094;2024-03-06T03:25:40;4.50;99.90
5846;DHT22;2949;50.778;7.094;2024-03-06T03:28:06;4.40;99.90
5846;DHT22;2949;50.778;7.094;2024-03-06T03:30:32;4.30;99.90
5846;DHT22;2949;50.778;7.094;2024-03-06T03:32:58;4.20;99.90
5846;DHT22;2949;50.778;7.094;2024-03-06T03:35:23;4.10;99.90
5846;DHT22;2949;50.778;7.094;2024-03-06T03:37:53;3.90;99.90
5846;DHT22;2949;50.778;7.094;2024-03-06T03:40:21;3.80;99.90
5846;DHT22;2949;50.778;7.094;2024-03-06T03:42:47;3.80;99.90
5846;DHT22;2949;50.778;7.094;2024-03-06T03:45:13;3.70;99.90
5846;DHT22;2949;50.778;7.094;2024-03-06T03:47:38;3.60;99.90
5846;DHT22;2949;50.778;7.094;2024-03-06T03:50:04;3.50;99.90
5846;DHT22;2949;50.778;7.094;2024-03-06T03:52:30;3.50;99.90
5846;DHT22;2949;50.778;7.094;2024-03-06T03:54:55;3.50;99.90
5846;DHT22;2949;50.778;7.094;2024-03-06T03:57:21;3.40;99.90
5846;DHT22;2949;50.778;7.094;2024-03-06T03:59:46;3.50;99.90
5846;DHT22;2949;50.778;7.094;2024-03-06T04:02:12;3.50;99.90
5846;DHT22;2949;50.778;7.094;2024-03-06T04:04:37;3.50;99.90
5846;DHT22;2949;50.778;7.094;2024-03-06T04:07:03;3.40;99.90
5846;DHT22;2949;50.778;7.094;2024-03-06T04:09:32;3.40;99.90
5846;DHT22;2949;50.778;7.094;2024-03-06T04:11:57;3.30;99.90
5846;DHT22;2949;50.778;7.094;2024-03-06T04:14:23;3.30;99.90
5846;DHT22;2949;50.778;7.094;2024-03-06T04:16:50;3.20;99.90
5846;DHT22;2949;50.778;7.094;2024-03-06T04:19:15;3.30;99.90
5846;DHT22;2949;50.778;7.094;2024-03-06T04:21:44;3.40;99.90
5846;DHT22;2949;50.778;7.094;2024-03-06T04:24:10;3.60;99.90
5846;DHT22;2949;50.778;7.094;2024-03-06T04:26:35;3.80;99.90
5846;DHT22;2949;50.778;7.094;2024-03-06T04:29:01;3.90;99.90
5846;DHT22;2949;50.778;7.094;2024-03-06T04:31:28;4.00;99.90
5846;DHT22;2949;50.778;7.094;2024-03-06T04:33:53;4.10;99.90
5846;DHT22;2949;50.778;7.094;2024-03-06T04:36:19;4.20;99.90
5846;DHT22;2949;50.778;7.094;2024-03-06T04:38:45;4.20;99.90
5846;DHT22;2949;50.778;7.094;2024-03-06T04:41:10;4.30;99.90
5846;DHT22;2949;50.778;7.094;2024-03-06T04:43:37;4.30;99.90
5846;DHT22;2949;50.778;7.094;2024-03-06T04:46:04;4.30;99.90
5846;DHT22;2949;50.778;7.094;2024-03-06T04:48:29;4.40;99.90
5846;DHT22;2949;50.778;7.094;2024-03-06T04:50:55;4.40;99.90
5846;DHT22;2949;50.778;7.094;2024-03-06T04:53:21;4.30;99.90
5846;DHT22;2949;50.778;7.094;2024-03-06T04:55:46;4.30;99.90
5846;DHT22;2949;50.778;7.094;2024-03-06T04:58:12;4.30;99.90
5846;DHT22;2949;50.778;7.094;2024-03-06T05:00:38;4.30;99.90
5846;DHT22;2949;50.778;7.094;2024-03-06T05:03:04;4.30;99.90
5846;DHT22;2949;50.778;7.094;2024-03-06T05:05:29;4.20;99.90
5846;DHT22;2949;50.778;7.094;2024-03-06T05:07:55;4.20;99.90
5846;DHT22;2949;50.778;7.094;2024-03-06T05:10:20;4.20;99.90
5846;DHT22;2949;50.778;7.094;2024-03-06T05:12:46;4.10;99.90
5846;DHT22;2949;50.778;7.094;2024-03-06T05:15:13;4.00;99.90
5846;DHT22;2949;50.778;7.094;2024-03-06T05:17:39;4.00;99.90
5846;DHT22;2949;50.778;7.094;2024-03-06T05:20:05;3.90;99.90
5846;DHT22;2949;50.778;7.094;2024-03-06T05:22:31;3.90;99.90
5846;DHT22;2949;50.778;7.094;2024-03-06T05:24:56;3.90;99.90
5846;DHT22;2949;50.778;7.094;2024-03-06T05:27:24;3.90;99.90
5846;DHT22;2949;50.778;7.094;2024-03-06T05:29:49;3.90;99.90
5846;DHT22;2949;50.778;7.094;2024-03-06T05:32:15;3.80;99.90
5846;DHT22;2949;50.778;7.094;2024-03-06T05:34:40;3.80;99.90
5846;DHT22;2949;50.778;7.094;2024-03-06T05:37:06;3.70;99.90
5846;DHT22;2949;50.778;7.094;2024-03-06T05:39:32;3.60;99.90
5846;DHT22;2949;50.778;7.094;2024-03-06T05:42:01;3.60;99.90
5846;DHT22;2949;50.778;7.094;2024-03-06T05:44:33;3.50;99.90
5846;DHT22;2949;50.778;7.094;2024-03-06T05:47:00;3.40;99.90
5846;DHT22;2949;50.778;7.094;2024-03-06T05:49:26;3.40;99.90
5846;DHT22;2949;50.778;7.094;2024-03-06T05:51:52;3.30;99.90
5846;DHT22;2949;50.778;7.094;2024-03-06T05:54:19;3.20;99.90
5846;DHT22;2949;50.778;7.094;2024-03-06T05:56:45;3.10;99.90
5846;DHT22;2949;50.778;7.094;2024-03-06T05:59:12;3.20;99.90
5846;DHT22;2949;50.778;7.094;2024-03-06T06:01:38;3.10;99.90
5846;DHT22;2949;50.778;7.094;2024-03-06T06:04:04;3.00;99.90
5846;DHT22;2949;50.778;7.094;2024-03-06T06:06:29;3.00;99.90
5846;DHT22;2949;50.778;7.094;2024-03-06T06:08:55;2.90;99.90
5846;DHT22;2949;50.778;7.094;2024-03-06T06:11:21;2.90;99.90
5846;DHT22;2949;50.778;7.094;2024-03-06T06:13:46;2.90;99.90
5846;DHT22;2949;50.778;7.094;2024-03-06T06:16:12;2.90;99.90
5846;DHT22;2949;50.778;7.094;2024-03-06T06:18:39;2.90;99.90
5846;DHT22;2949;50.778;7.094;2024-03-06T06:21:06;3.00;99.90
5846;DHT22;2949;50.778;7.094;2024-03-06T06:23:32;3.00;99.90
5846;DHT22;2949;50.778;7.094;2024-03-06T06:25:58;2.90;99.90
5846;DHT22;2949;50.778;7.094;2024-03-06T06:28:24;3.00;99.90
5846;DHT22;2949;50.778;7.094;2024-03-06T06:30:49;3.10;99.90
5846;DHT22;2949;50.778;7.094;2024-03-06T06:33:20;3.10;99.90
5846;DHT22;2949;50.778;7.094;2024-03-06T06:35:47;3.10;99.90
5846;DHT22;2949;50.778;7.094;2024-03-06T06:38:13;3.10;99.90
5846;DHT22;2949;50.778;7.094;2024-03-06T06:40:39;3.10;99.90
5846;DHT22;2949;50.778;7.094;2024-03-06T06:43:06;3.20;99.90
5846;DHT22;2949;50.778;7.094;2024-03-06T06:45:31;3.30;99.90
5846;DHT22;2949;50.778;7.094;2024-03-06T06:47:57;3.40;99.90
5846;DHT22;2949;50.778;7.094;2024-03-06T06:50:22;3.50;99.90
5846;DHT22;2949;50.778;7.094;2024-03-06T06:52:51;3.50;99.90
5846;DHT22;2949;50.778;7.094;2024-03-06T06:55:17;3.60;99.90
5846;DHT22;2949;50.778;7.094;2024-03-06T06:57:42;3.60;99.90
5846;DHT22;2949;50.778;7.094;2024-03-06T07:00:08;3.70;99.90
5846;DHT22;2949;50.778;7.094;2024-03-06T07:02:38;3.70;99.90
5846;DHT22;2949;50.778;7.094;2024-03-06T07:05:07;3.80;99.90
5846;DHT22;2949;50.778;7.094;2024-03-06T07:07:34;4.00;99.90
5846;DHT22;2949;50.778;7.094;2024-03-06T07:10:00;4.10;99.90
5846;DHT22;2949;50.778;7.094;2024-03-06T07:12:25;4.30;99.90
5846;DHT22;2949;50.778;7.094;2024-03-06T07:14:51;4.40;99.90
5846;DHT22;2949;50.778;7.094;2024-03-06T07:17:16;4.60;99.90
5846;DHT22;2949;50.778;7.094;2024-03-06T07:19:42;4.70;99.90
5846;DHT22;2949;50.778;7.094;2024-03-06T07:22:07;4.90;99.90
5846;DHT22;2949;50.778;7.094;2024-03-06T07:24:34;5.20;99.90
5846;DHT22;2949;50.778;7.094;2024-03-06T07:26:59;5.70;99.90
5846;DHT22;2949;50.778;7.094;2024-03-06T07:29:27;5.90;99.90
5846;DHT22;2949;50.778;7.094;2024-03-06T07:31:52;6.10;99.90
5846;DHT22;2949;50.778;7.094;2024-03-06T07:34:19;6.50;99.90
5846;DHT22;2949;50.778;7.094;2024-03-06T07:36:46;7.50;99.90
5846;DHT22;2949;50.778;7.094;2024-03-06T07:39:11;9.00;99.90
5846;DHT22;2949;50.778;7.094;2024-03-06T07:41:37;11.20;99.90
5846;DHT22;2949;50.778;7.094;2024-03-06T07:44:03;12.90;99.90
5846;DHT22;2949;50.778;7.094;2024-03-06T07:46:28;14.50;99.90
5846;DHT22;2949;50.778;7.094;2024-03-06T07:48:54;15.50;99.90
5846;DHT22;2949;50.778;7.094;2024-03-06T07:51:20;16.50;99.90
5846;DHT22;2949;50.778;7.094;2024-03-06T07:53:46;16.90;99.90
5846;DHT22;2949;50.778;7.094;2024-03-06T07:56:11;17.10;99.90
5846;DHT22;2949;50.778;7.094;2024-03-06T07:58:38;17.60;99.90
5846;DHT22;2949;50.778;7.094;2024-03-06T08:01:03;17.50;99.50
5846;DHT22;2949;50.778;7.094;2024-03-06T08:03:29;17.10;99.10
5846;DHT22;2949;50.778;7.094;2024-03-06T08:05:55;16.10;98.90
5846;DHT22;2949;50.778;7.094;2024-03-06T08:08:21;14.10;99.90
5846;DHT22;2949;50.778;7.094;2024-03-06T08:10:47;12.70;99.90
5846;DHT22;2949;50.778;7.094;2024-03-06T08:13:13;11.80;99.90
5846;DHT22;2949;50.778;7.094;2024-03-06T08:15:39;11.90;99.90
5846;DHT22;2949;50.778;7.094;2024-03-06T08:18:05;11.70;99.90
5846;DHT22;2949;50.778;7.094;2024-03-06T08:20:31;11.60;99.90
5846;DHT22;2949;50.778;7.094;2024-03-06T08:22:56;11.50;99.90
5846;DHT22;2949;50.778;7.094;2024-03-06T08:25:22;12.10;99.90
5846;DHT22;2949;50.778;7.094;2024-03-06T08:27:48;14.20;99.90
5846;DHT22;2949;50.778;7.094;2024-03-06T08:30:14;16.30;99.90
5846;DHT22;2949;50.778;7.094;2024-03-06T08:32:40;17.80;99.90
5846;DHT22;2949;50.778;7.094;2024-03-06T08:35:08;19.40;99.10
5846;DHT22;2949;50.778;7.094;2024-03-06T08:37:40;19.90;94.50
5846;DHT22;2949;50.778;7.094;2024-03-06T08:40:06;20.10;92.80
5846;DHT22;2949;50.778;7.094;2024-03-06T08:42:49;20.20;91.30
5846;DHT22;2949;50.778;7.094;2024-03-06T08:45:18;20.20;89.40
5846;DHT22;2949;50.778;7.094;2024-03-06T08:47:45;20.60;91.50
5846;DHT22;2949;50.778;7.094;2024-03-06T08:50:11;21.50;88.30
5846;DHT22;2949;50.778;7.094;2024-03-06T08:52:38;22.00;85.30
5846;DHT22;2949;50.778;7.094;2024-03-06T08:55:04;21.90;82.00
5846;DHT22;2949;50.778;7.094;2024-03-06T08:57:31;21.70;82.30
5846;DHT22;2949;50.778;7.094;2024-03-06T08:59:57;21.50;82.10
5846;DHT22;2949;50.778;7.094;2024-03-06T09:02:23;21.30;81.50
5846;DHT22;2949;50.778;7.094;2024-03-06T09:04:49;21.30;81.60
5846;DHT22;2949;50.778;7.094;2024-03-06T09:07:17;21.30;83.20
5846;DHT22;2949;50.778;7.094;2024-03-06T09:09:43;21.10;81.90
5846;DHT22;2949;50.778;7.094;2024-03-06T09:12:10;21.50;81.80
5846;DHT22;2949;50.778;7.094;2024-03-06T09:14:36;22.10;81.90
5846;DHT22;2949;50.778;7.094;2024-03-06T09:17:02;22.30;79.40
5846;DHT22;2949;50.778;7.094;2024-03-06T09:19:28;21.80;79.80
5846;DHT22;2949;50.778;7.094;2024-03-06T09:21:54;21.90;78.90
5846;DHT22;2949;50.778;7.094;2024-03-06T09:24:23;22.40;75.80
5846;DHT22;2949;50.778;7.094;2024-03-06T09:26:49;22.80;74.90
5846;DHT22;2949;50.778;7.094;2024-03-06T09:29:15;23.00;72.50
5846;DHT22;2949;50.778;7.094;2024-03-06T09:31:42;23.20;72.40
5846;DHT22;2949;50.778;7.094;2024-03-06T09:34:07;23.50;71.00
5846;DHT22;2949;50.778;7.094;2024-03-06T09:36:35;23.60;69.30
5846;DHT22;2949;50.778;7.094;2024-03-06T09:39:01;23.60;69.00
5846;DHT22;2949;50.778;7.094;2024-03-06T09:41:26;23.60;67.60
5846;DHT22;2949;50.778;7.094;2024-03-06T09:43:52;23.00;67.20
5846;DHT22;2949;50.778;7.094;2024-03-06T09:46:18;22.90;69.10
5846;DHT22;2949;50.778;7.094;2024-03-06T09:48:46;23.30;68.40
5846;DHT22;2949;50.778;7.094;2024-03-06T09:51:12;23.60;69.10
5846;DHT22;2949;50.778;7.094;2024-03-06T09:53:41;23.50;68.70
5846;DHT22;2949;50.778;7.094;2024-03-06T09:56:08;24.10;65.30
5846;DHT22;2949;50.778;7.094;2024-03-06T09:58:35;23.80;62.80
5846;DHT22;2949;50.778;7.094;2024-03-06T10:01:01;23.00;65.40
5846;DHT22;2949;50.778;7.094;2024-03-06T10:03:32;22.60;65.00
5846;DHT22;2949;50.778;7.094;2024-03-06T10:05:58;22.10;67.10
5846;DHT22;2949;50.778;7.094;2024-03-06T10:08:23;22.00;68.00
5846;DHT22;2949;50.778;7.094;2024-03-06T10:10:52;22.20;69.00
5846;DHT22;2949;50.778;7.094;2024-03-06T10:13:18;22.60;68.20
5846;DHT22;2949;50.778;7.094;2024-03-06T10:16:04;23.10;66.20
5846;DHT22;2949;50.778;7.094;2024-03-06T10:18:32;23.30;65.60
5846;DHT22;2949;50.778;7.094;2024-03-06T10:20:58;23.60;62.30
5846;DHT22;2949;50.778;7.094;2024-03-06T10:23:24;23.90;61.60
5846;DHT22;2949;50.778;7.094;2024-03-06T10:25:50;23.90;60.90
5846;DHT22;2949;50.778;7.094;2024-03-06T10:28:18;23.60;63.90
5846;DHT22;2949;50.778;7.094;2024-03-06T10:30:44;23.90;62.20
5846;DHT22;2949;50.778;7.094;2024-03-06T10:33:11;24.10;61.70
5846;DHT22;2949;50.778;7.094;2024-03-06T10:35:37;23.80;61.60
5846;DHT22;2949;50.778;7.094;2024-03-06T10:38:04;23.60;62.00
5846;DHT22;2949;50.778;7.094;2024-03-06T10:40:56;23.50;64.50
5846;DHT22;2949;50.778;7.094;2024-03-06T10:43:23;23.50;62.20
5846;DHT22;2949;50.778;7.094;2024-03-06T10:45:50;23.40;61.40
5846;DHT22;2949;50.778;7.094;2024-03-06T10:48:18;23.30;60.80
5846;DHT22;2949;50.778;7.094;2024-03-06T10:50:45;23.60;59.10
5846;DHT22;2949;50.778;7.094;2024-03-06T10:53:12;23.20;62.20
5846;DHT22;2949;50.778;7.094;2024-03-06T10:55:39;22.90;61.80
5846;DHT22;2949;50.778;7.094;2024-03-06T10:58:05;22.40;60.90
5846;DHT22;2949;50.778;7.094;2024-03-06T11:00:35;22.60;62.80
5846;DHT22;2949;50.778;7.094;2024-03-06T11:03:08;22.90;61.90
5846;DHT22;2949;50.778;7.094;2024-03-06T11:05:37;22.80;62.60
5846;DHT22;2949;50.778;7.094;2024-03-06T11:08:09;22.90;63.50
5846;DHT22;2949;50.778;7.094;2024-03-06T11:10:37;23.00;62.30
5846;DHT22;2949;50.778;7.094;2024-03-06T11:13:21;22.70;62.20
5846;DHT22;2949;50.778;7.094;2024-03-06T11:15:48;22.50;60.40
5846;DHT22;2949;50.778;7.094;2024-03-06T11:23:28;18.40;68.70
5846;DHT22;2949;50.778;7.094;2024-03-06T11:26:07;17.10;73.30
5846;DHT22;2949;50.778;7.094;2024-03-06T11:28:36;16.10;78.70
5846;DHT22;2949;50.778;7.094;2024-03-06T11:31:10;15.50;83.50
5846;DHT22;2949;50.778;7.094;2024-03-06T11:33:43;15.10;87.60
5846;DHT22;2949;50.778;7.094;2024-03-06T11:36:27;14.90;86.00
5846;DHT22;2949;50.778;7.094;2024-03-06T11:39:04;14.60;88.10
5846;DHT22;2949;50.778;7.094;2024-03-06T11:44:01;14.20;90.20
5846;DHT22;2949;50.778;7.094;2024-03-06T11:47:02;14.20;91.50
5846;DHT22;2949;50.778;7.094;2024-03-06T11:49:32;14.10;91.70
5846;DHT22;2949;50.778;7.094;2024-03-06T11:52:07;14.20;92.20
5846;DHT22;2949;50.778;7.094;2024-03-06T11:54:36;14.20;92.80
5846;DHT22;2949;50.778;7.094;2024-03-06T11:57:03;14.20;93.60
5846;DHT22;2949;50.778;7.094;2024-03-06T12:01:56;14.00;93.80
5846;DHT22;2949;50.778;7.094;2024-03-06T12:04:21;14.00;94.00
5846;DHT22;2949;50.778;7.094;2024-03-06T12:06:48;13.90;94.10
5846;DHT22;2949;50.778;7.094;2024-03-06T12:09:14;13.70;95.10
5846;DHT22;2949;50.778;7.094;2024-03-06T12:11:40;13.50;96.00
5846;DHT22;2949;50.778;7.094;2024-03-06T12:14:12;13.50;96.30
5846;DHT22;2949;50.778;7.094;2024-03-06T12:16:38;13.60;96.50
5846;DHT22;2949;50.778;7.094;2024-03-06T12:19:03;13.70;98.00
5846;DHT22;2949;50.778;7.094;2024-03-06T12:21:34;13.90;98.50
5846;DHT22;2949;50.778;7.094;2024-03-06T12:24:10;14.00;98.00
5846;DHT22;2949;50.778;7.094;2024-03-06T12:26:36;14.20;97.60
5846;DHT22;2949;50.778;7.094;2024-03-06T12:29:09;14.60;97.80
5846;DHT22;2949;50.778;7.094;2024-03-06T12:31:36;14.80;95.90
5846;DHT22;2949;50.778;7.094;2024-03-06T12:34:03;14.80;95.80
5846;DHT22;2949;50.778;7.094;2024-03-06T12:36:29;14.90;97.30
5846;DHT22;2949;50.778;7.094;2024-03-06T12:39:02;14.70;98.30
5846;DHT22;2949;50.778;7.094;2024-03-06T12:41:29;14.50;98.00
5846;DHT22;2949;50.778;7.094;2024-03-06T12:43:55;14.10;99.40
5846;DHT22;2949;50.778;7.094;2024-03-06T12:46:22;13.60;99.90
5846;DHT22;2949;50.778;7.094;2024-03-06T12:48:47;13.30;99.90
5846;DHT22;2949;50.778;7.094;2024-03-06T12:51:13;13.00;99.90
5846;DHT22;2949;50.778;7.094;2024-03-06T12:53:38;12.80;99.90
5846;DHT22;2949;50.778;7.094;2024-03-06T12:56:05;12.60;99.90
5846;DHT22;2949;50.778;7.094;2024-03-06T12:58:31;12.50;99.90
5846;DHT22;2949;50.778;7.094;2024-03-06T13:00:57;12.60;99.90
5846;DHT22;2949;50.778;7.094;2024-03-06T13:03:23;12.70;99.90
5846;DHT22;2949;50.778;7.094;2024-03-06T13:05:49;12.70;99.90
5846;DHT22;2949;50.778;7.094;2024-03-06T13:08:14;12.70;99.90
5846;DHT22;2949;50.778;7.094;2024-03-06T13:10:41;12.70;99.90
5846;DHT22;2949;50.778;7.094;2024-03-06T13:13:06;12.80;99.90
5846;DHT22;2949;50.778;7.094;2024-03-06T13:15:32;12.80;99.90
5846;DHT22;2949;50.778;7.094;2024-03-06T13:17:59;12.90;99.90
5846;DHT22;2949;50.778;7.094;2024-03-06T13:20:29;12.90;99.90
5846;DHT22;2949;50.778;7.094;2024-03-06T13:22:54;13.00;99.90
5846;DHT22;2949;50.778;7.094;2024-03-06T13:25:20;13.00;99.90
5846;DHT22;2949;50.778;7.094;2024-03-06T13:27:46;13.00;99.90
5846;DHT22;2949;50.778;7.094;2024-03-06T13:30:11;12.90;99.90
5846;DHT22;2949;50.778;7.094;2024-03-06T13:32:37;12.90;99.90
5846;DHT22;2949;50.778;7.094;2024-03-06T13:35:04;12.80;99.90
5846;DHT22;2949;50.778;7.094;2024-03-06T13:37:32;12.70;99.90
5846;DHT22;2949;50.778;7.094;2024-03-06T13:39:57;12.80;99.90
5846;DHT22;2949;50.778;7.094;2024-03-06T13:42:26;12.70;99.90
5846;DHT22;2949;50.778;7.094;2024-03-06T13:44:52;12.70;99.80
5846;DHT22;2949;50.778;7.094;2024-03-06T13:47:17;12.80;99.90
5846;DHT22;2949;50.778;7.094;2024-03-06T13:49:43;12.80;99.20
5846;DHT22;2949;50.778;7.094;2024-03-06T13:52:09;12.90;99.50
5846;DHT22;2949;50.778;7.094;2024-03-06T13:54:38;12.80;99.00
5846;DHT22;2949;50.778;7.094;2024-03-06T13:57:06;12.80;99.90
5846;DHT22;2949;50.778;7.094;2024-03-06T13:59:32;12.80;99.70
5846;DHT22;2949;50.778;7.094;2024-03-06T14:01:58;12.80;99.40
5846;DHT22;2949;50.778;7.094;2024-03-06T14:04:24;12.80;99.10
5846;DHT22;2949;50.778;7.094;2024-03-06T14:06:50;12.90;98.90
5846;DHT22;2949;50.778;7.094;2024-03-06T14:09:16;12.90;98.90
5846;DHT22;2949;50.778;7.094;2024-03-06T14:11:41;12.90;99.40
5846;DHT22;2949;50.778;7.094;2024-03-06T14:14:07;12.80;98.70
5846;DHT22;2949;50.778;7.094;2024-03-06T14:16:34;12.90;97.80
5846;DHT22;2949;50.778;7.094;2024-03-06T14:18:59;12.80;98.80
5846;DHT22;2949;50.778;7.094;2024-03-06T14:21:26;12.80;97.90
5846;DHT22;2949;50.778;7.094;2024-03-06T14:23:51;12.80;98.30
5846;DHT22;2949;50.778;7.094;2024-03-06T14:26:17;12.90;98.40
5846;DHT22;2949;50.778;7.094;2024-03-06T14:28:42;12.90;97.50
5846;DHT22;2949;50.778;7.094;2024-03-06T14:31:08;12.90;97.60
5846;DHT22;2949;50.778;7.094;2024-03-06T14:33:37;12.80;97.40
5846;DHT22;2949;50.778;7.094;2024-03-06T14:36:03;12.80;96.00
5846;DHT22;2949;50.778;7.094;2024-03-06T14:38:29;12.80;96.60
5846;DHT22;2949;50.778;7.094;2024-03-06T14:40:54;12.80;96.50
5846;DHT22;2949;50.778;7.094;2024-03-06T14:43:20;12.80;97.60
5846;DHT22;2949;50.778;7.094;2024-03-06T14:45:46;12.90;97.40
5846;DHT22;2949;50.778;7.094;2024-03-06T14:48:11;12.90;96.60
5846;DHT22;2949;50.778;7.094;2024-03-06T14:50:37;12.80;96.90
5846;DHT22;2949;50.778;7.094;2024-03-06T14:53:03;12.80;96.10
5846;DHT22;2949;50.778;7.094;2024-03-06T14:55:28;12.90;95.70
5846;DHT22;2949;50.778;7.094;2024-03-06T14:57:54;12.90;95.30
5846;DHT22;2949;50.778;7.094;2024-03-06T15:00:19;13.00;95.10
5846;DHT22;2949;50.778;7.094;2024-03-06T15:02:47;13.00;95.50
5846;DHT22;2949;50.778;7.094;2024-03-06T15:05:13;13.00;95.40
5846;DHT22;2949;50.778;7.094;2024-03-06T15:07:38;13.10;96.60
5846;DHT22;2949;50.778;7.094;2024-03-06T15:10:08;13.00;96.80
5846;DHT22;2949;50.778;7.094;2024-03-06T15:12:34;13.10;96.60
5846;DHT22;2949;50.778;7.094;2024-03-06T15:15:02;13.20;96.20
5846;DHT22;2949;50.778;7.094;2024-03-06T15:17:29;13.20;95.50
5846;DHT22;2949;50.778;7.094;2024-03-06T15:19:57;13.30;94.80
5846;DHT22;2949;50.778;7.094;2024-03-06T15:22:22;13.50;94.90
5846;DHT22;2949;50.778;7.094;2024-03-06T15:24:48;13.50;94.70
5846;DHT22;2949;50.778;7.094;2024-03-06T15:27:16;13.60;94.20
5846;DHT22;2949;50.778;7.094;2024-03-06T15:29:42;13.70;93.70
5846;DHT22;2949;50.778;7.094;2024-03-06T15:32:09;13.70;93.70
5846;DHT22;2949;50.778;7.094;2024-03-06T15:34:35;13.70;93.70
5846;DHT22;2949;50.778;7.094;2024-03-06T15:37:01;13.70;94.80
5846;DHT22;2949;50.778;7.094;2024-03-06T15:39:28;13.70;94.80
5846;DHT22;2949;50.778;7.094;2024-03-06T15:41:53;13.70;94.20
5846;DHT22;2949;50.778;7.094;2024-03-06T15:44:19;13.70;93.90
5846;DHT22;2949;50.778;7.094;2024-03-06T15:46:45;13.80;93.70
5846;DHT22;2949;50.778;7.094;2024-03-06T15:49:22;13.80;93.70
5846;DHT22;2949;50.778;7.094;2024-03-06T15:51:50;13.70;93.70
5846;DHT22;2949;50.778;7.094;2024-03-06T15:54:16;13.70;93.40
5846;DHT22;2949;50.778;7.094;2024-03-06T15:56:41;13.80;93.50
5846;DHT22;2949;50.778;7.094;2024-03-06T15:59:07;13.70;93.50
5846;DHT22;2949;50.778;7.094;2024-03-06T16:01:32;13.70;93.30
5846;DHT22;2949;50.778;7.094;2024-03-06T16:03:58;13.60;93.50
5846;DHT22;2949;50.778;7.094;2024-03-06T16:06:23;13.60;94.60
5846;DHT22;2949;50.778;7.094;2024-03-06T16:08:49;13.60;95.00
5846;DHT22;2949;50.778;7.094;2024-03-06T16:11:14;13.50;94.40
5846;DHT22;2949;50.778;7.094;2024-03-06T16:13:40;13.30;94.20
5846;DHT22;2949;50.778;7.094;2024-03-06T16:16:06;13.30;94.30